Time;durP1;ratioP1;P1;durP2;ratioP2;P2;SDS_P1;SDS_P2;PMS_P1;PMS_P2;Temp;Humidity;BMP_temperature;BMP_pressure;BME280_temperature;BME280_humidity;BME280_pressure;Samples;Min_cycle;Max_cycle;Signal;HPM_P1;HPM_P2
2024/01/03 00:02:01;;;;;;;8.15;1.50;;;;;;;;;;5005259;28;92697;-78
2024/01/03 00:04:27;;;;;;;8.90;2.28;;;;;;;;;;5005892;28;92499;-78
2024/01/03 00:06:54;;;;;;;7.55;1.98;;;;;;;;;;5003483;28;92118;-78
2024/01/03 00:09:21;;;;;;;6.22;2.13;;;;;;;;;;5021168;28;92483;-78
2024/01/03 00:11:47;;;;;;;9.73;2.42;;;;;;;;;;5025228;28;93109;-78
2024/01/03 00:14:22;;;;;;;13.13;2.88;;;;;;;;;;5007528;28;94460;-78
2024/01/03 00:16:48;;;;;;;3.50;1.50;;;;;;;;;;5023746;28;95739;-78
2024/01/03 00:19:16;;;;;;;11.02;2.15;;;;;;;;;;5014649;28;92370;-78
2024/01/03 00:21:43;;;;;;;11.75;1.98;;;;;;;;;;5003827;28;94838;-78
2024/01/03 00:24:11;;;;;;;8.75;1.95;;;;;;;;;;5013287;28;92386;-78
2024/01/03 00:26:39;;;;;;;6.15;1.60;;;;;;;;;;5015722;28;92293;-78
2024/01/03 00:29:17;;;;;;;8.18;2.08;;;;;;;;;;5007939;28;92340;-78
2024/01/03 00:31:44;;;;;;;8.82;1.63;;;;;;;;;;5009737;28;93020;-78
2024/01/03 00:34:11;;;;;;;3.88;1.58;;;;;;;;;;5000532;28;92223;-78
2024/01/03 00:36:38;;;;;;;7.65;1.73;;;;;;;;;;5016246;28;92353;-78
2024/01/03 00:39:04;;;;;;;7.95;1.80;;;;;;;;;;5016425;28;92008;-78
2024/01/03 00:41:31;;;;;;;4.47;1.40;;;;;;;;;;5012292;28;92408;-78
2024/01/03 00:43:57;;;;;;;5.47;1.40;;;;;;;;;;5007566;28;92538;-78
2024/01/03 00:46:24;;;;;;;6.75;1.50;;;;;;;;;;5010914;28;94586;-78
2024/01/03 00:48:50;;;;;;;4.70;1.27;;;;;;;;;;5001606;28;93965;-78
2024/01/03 00:51:17;;;;;;;7.40;1.58;;;;;;;;;;5014480;28;92284;-78
2024/01/03 00:53:43;;;;;;;7.03;2.03;;;;;;;;;;5020012;28;92427;-78
2024/01/03 00:56:11;;;;;;;8.52;1.35;;;;;;;;;;5011920;28;93135;-78
2024/01/03 00:58:40;;;;;;;6.80;1.63;;;;;;;;;;5027098;28;94349;-78
2024/01/03 01:01:06;;;;;;;8.32;1.80;;;;;;;;;;5011106;28;92463;-78
2024/01/03 01:03:33;;;;;;;5.97;1.60;;;;;;;;;;5012644;28;91743;-78
2024/01/03 01:05:59;;;;;;;6.70;1.38;;;;;;;;;;5011151;28;94221;-78
2024/01/03 01:08:26;;;;;;;9.75;1.50;;;;;;;;;;5024131;28;92037;-78
2024/01/03 01:10:53;;;;;;;7.32;2.33;;;;;;;;;;5014247;28;94628;-78
2024/01/03 01:13:19;;;;;;;7.50;1.55;;;;;;;;;;5005486;28;92439;-78
2024/01/03 01:15:45;;;;;;;6.63;1.48;;;;;;;;;;5009103;28;92208;-77
2024/01/03 01:18:12;;;;;;;12.23;2.10;;;;;;;;;;5024205;28;92137;-78
2024/01/03 01:20:39;;;;;;;9.27;2.35;;;;;;;;;;5004852;28;94385;-78
2024/01/03 01:23:06;;;;;;;11.55;2.17;;;;;;;;;;5018454;28;92321;-78
2024/01/03 01:25:32;;;;;;;5.43;1.58;;;;;;;;;;5020865;28;92090;-78
2024/01/03 01:27:59;;;;;;;7.25;1.95;;;;;;;;;;5016272;28;94185;-78
2024/01/03 01:30:25;;;;;;;12.13;2.38;;;;;;;;;;5008481;28;92160;-78
2024/01/03 01:32:52;;;;;;;5.55;1.70;;;;;;;;;;5022511;28;91914;-78
2024/01/03 01:35:19;;;;;;;5.80;1.77;;;;;;;;;;5021826;28;94546;-78
2024/01/03 01:37:46;;;;;;;12.70;2.63;;;;;;;;;;5014651;28;92993;-78
2024/01/03 01:40:12;;;;;;;6.90;2.08;;;;;;;;;;5008274;28;93878;-78
2024/01/03 01:42:43;;;;;;;10.50;2.33;;;;;;;;;;5023833;28;92414;-78
2024/01/03 01:45:09;;;;;;;9.93;2.15;;;;;;;;;;5022903;28;92427;-78
2024/01/03 01:47:37;;;;;;;11.63;2.95;;;;;;;;;;5021983;28;92305;-78
2024/01/03 01:50:04;;;;;;;13.25;2.55;;;;;;;;;;5006401;28;92858;-78
2024/01/03 01:52:31;;;;;;;14.70;2.72;;;;;;;;;;5002163;28;94425;-78
2024/01/03 01:54:58;;;;;;;11.30;1.88;;;;;;;;;;5002244;28;92343;-78
2024/01/03 01:57:25;;;;;;;12.38;2.45;;;;;;;;;;5003976;28;92388;-78
2024/01/03 01:59:51;;;;;;;9.25;2.08;;;;;;;;;;4995804;28;95045;-78
2024/01/03 02:02:18;;;;;;;10.10;2.85;;;;;;;;;;5051353;28;94709;-78
2024/01/03 02:04:44;;;;;;;18.35;3.75;;;;;;;;;;5030338;28;92505;-78
2024/01/03 02:07:11;;;;;;;7.05;2.17;;;;;;;;;;5021083;28;95508;-78
2024/01/03 02:09:39;;;;;;;14.88;3.22;;;;;;;;;;5010895;28;92256;-78
2024/01/03 02:12:06;;;;;;;9.43;2.28;;;;;;;;;;5024935;28;92397;-77
2024/01/03 02:14:32;;;;;;;9.82;2.53;;;;;;;;;;5014659;28;94121;-78
2024/01/03 02:16:59;;;;;;;12.50;2.63;;;;;;;;;;5015033;28;93626;-78
2024/01/03 02:19:25;;;;;;;11.38;3.63;;;;;;;;;;5015971;28;91989;-78
2024/01/03 02:21:52;;;;;;;13.57;2.65;;;;;;;;;;5012809;28;91997;-78
2024/01/03 02:24:18;;;;;;;10.90;2.83;;;;;;;;;;5022211;28;94417;-78
2024/01/03 02:26:45;;;;;;;12.63;2.55;;;;;;;;;;5037256;28;96824;-78
2024/01/03 02:29:11;;;;;;;7.88;1.88;;;;;;;;;;5022197;27;92479;-78
2024/01/03 02:31:39;;;;;;;18.25;2.80;;;;;;;;;;5007219;28;92227;-77
2024/01/03 02:34:06;;;;;;;14.68;3.65;;;;;;;;;;5007138;28;94025;-77
2024/01/03 02:36:33;;;;;;;13.35;2.88;;;;;;;;;;5026833;28;92310;-77
2024/01/03 02:38:59;;;;;;;12.07;2.20;;;;;;;;;;5013141;28;94506;-77
2024/01/03 02:41:26;;;;;;;10.68;2.45;;;;;;;;;;5020338;28;92308;-77
2024/01/03 02:43:52;;;;;;;9.70;2.55;;;;;;;;;;5019584;28;92939;-77
2024/01/03 02:46:19;;;;;;;13.40;2.75;;;;;;;;;;5007110;28;92324;-79
2024/01/03 02:48:46;;;;;;;10.10;2.00;;;;;;;;;;5002051;28;96385;-77
2024/01/03 02:51:22;;;;;;;13.57;2.30;;;;;;;;;;5019002;28;92987;-77
2024/01/03 02:53:49;;;;;;;11.52;2.53;;;;;;;;;;5018423;28;93267;-77
2024/01/03 02:56:16;;;;;;;7.90;2.53;;;;;;;;;;5016697;28;93836;-77
2024/01/03 02:58:42;;;;;;;12.45;2.03;;;;;;;;;;5018764;28;92206;-77
2024/01/03 03:01:09;;;;;;;14.80;2.58;;;;;;;;;;5021108;28;92034;-77
2024/01/03 03:03:35;;;;;;;12.52;2.13;;;;;;;;;;5009489;28;92344;-77
2024/01/03 03:06:03;;;;;;;12.10;2.83;;;;;;;;;;5015868;28;91881;-77
2024/01/03 03:08:30;;;;;;;14.35;2.70;;;;;;;;;;5006316;28;92376;-77
2024/01/03 03:10:57;;;;;;;10.95;2.45;;;;;;;;;;5013339;28;92141;-77
2024/01/03 03:13:24;;;;;;;13.25;3.00;;;;;;;;;;5002964;28;94762;-77
2024/01/03 03:15:50;;;;;;;8.23;2.35;;;;;;;;;;5010294;28;93045;-77
2024/01/03 03:18:17;;;;;;;11.05;2.67;;;;;;;;;;5017501;28;92961;-77
2024/01/03 03:20:44;;;;;;;10.82;2.75;;;;;;;;;;5026515;28;92663;-77
2024/01/03 03:23:11;;;;;;;15.10;2.20;;;;;;;;;;5026867;28;92332;-77
2024/01/03 03:25:37;;;;;;;10.73;2.72;;;;;;;;;;5031913;28;92331;-77
2024/01/03 03:28:07;;;;;;;9.10;2.88;;;;;;;;;;5029432;28;92461;-77
2024/01/03 03:30:35;;;;;;;8.68;1.90;;;;;;;;;;5035468;28;92288;-77
2024/01/03 03:33:01;;;;;;;14.77;3.92;;;;;;;;;;5018414;28;92398;-78
2024/01/03 03:35:28;;;;;;;9.43;2.47;;;;;;;;;;5027643;28;93147;-78
2024/01/03 03:37:56;;;;;;;12.55;2.75;;;;;;;;;;5018535;28;94487;-77
2024/01/03 03:40:23;;;;;;;11.85;1.70;;;;;;;;;;5022441;28;94670;-78
2024/01/03 03:42:50;;;;;;;10.55;2.00;;;;;;;;;;5016489;28;93709;-78
2024/01/03 03:45:16;;;;;;;10.25;2.08;;;;;;;;;;5036190;28;92499;-78
2024/01/03 03:47:43;;;;;;;9.93;2.42;;;;;;;;;;5031121;28;92244;-78
2024/01/03 03:50:10;;;;;;;11.05;2.05;;;;;;;;;;5011922;28;94257;-78
2024/01/03 03:52:39;;;;;;;16.05;2.90;;;;;;;;;;4995092;28;94083;-77
2024/01/03 03:55:06;;;;;;;11.43;2.58;;;;;;;;;;5029867;28;91974;-78
2024/01/03 03:57:32;;;;;;;11.65;2.83;;;;;;;;;;5022720;28;93896;-78
2024/01/03 03:59:59;;;;;;;9.63;2.42;;;;;;;;;;5023476;27;92404;-77
2024/01/03 04:02:25;;;;;;;12.52;2.90;;;;;;;;;;5004018;28;94840;-78
2024/01/03 04:04:52;;;;;;;13.73;2.80;;;;;;;;;;5020681;28;92709;-78
2024/01/03 04:07:19;;;;;;;13.60;3.08;;;;;;;;;;5022589;28;92411;-78
2024/01/03 04:09:45;;;;;;;13.75;2.60;;;;;;;;;;5005623;28;93169;-78
2024/01/03 04:12:12;;;;;;;9.70;3.30;;;;;;;;;;5025659;28;92924;-78
2024/01/03 04:14:38;;;;;;;20.27;3.03;;;;;;;;;;5015742;28;92270;-78
2024/01/03 04:17:05;;;;;;;19.70;2.95;;;;;;;;;;5000547;28;94696;-78
2024/01/03 04:19:31;;;;;;;8.75;2.10;;;;;;;;;;5014608;28;91917;-78
2024/01/03 04:21:58;;;;;;;16.02;4.00;;;;;;;;;;5024229;28;92291;-78
2024/01/03 04:24:24;;;;;;;11.77;3.10;;;;;;;;;;5007030;28;92604;-78
2024/01/03 04:26:54;;;;;;;15.35;3.15;;;;;;;;;;5016987;28;94298;-78
2024/01/03 04:29:20;;;;;;;13.60;2.58;;;;;;;;;;5008361;28;95089;-78
2024/01/03 04:31:47;;;;;;;16.30;3.83;;;;;;;;;;5001386;28;92416;-78
2024/01/03 04:34:14;;;;;;;12.20;3.08;;;;;;;;;;5023295;28;92350;-78
2024/01/03 04:36:40;;;;;;;19.45;3.38;;;;;;;;;;5011768;28;93021;-78
2024/01/03 04:39:07;;;;;;;15.98;3.20;;;;;;;;;;5022558;28;92244;-77
2024/01/03 04:41:33;;;;;;;18.80;3.08;;;;;;;;;;5015400;28;92310;-78
2024/01/03 04:44:00;;;;;;;15.48;2.88;;;;;;;;;;5001721;28;91987;-78
2024/01/03 04:46:26;;;;;;;13.48;2.95;;;;;;;;;;5015596;28;93207;-77
2024/01/03 04:48:53;;;;;;;14.40;2.78;;;;;;;;;;5003914;28;93274;-78
2024/01/03 04:51:20;;;;;;;21.35;3.60;;;;;;;;;;5018396;28;94740;-78
2024/01/03 04:53:46;;;;;;;17.23;3.70;;;;;;;;;;5010264;28;94730;-77
2024/01/03 04:56:13;;;;;;;22.15;3.75;;;;;;;;;;5005557;28;93057;-77
2024/01/03 04:58:39;;;;;;;19.83;3.65;;;;;;;;;;4991250;28;92314;-77
2024/01/03 05:01:05;;;;;;;18.63;3.75;;;;;;;;;;5019952;28;92289;-78
2024/01/03 05:03:32;;;;;;;11.05;2.72;;;;;;;;;;5007226;28;92414;-77
2024/01/03 05:05:58;;;;;;;20.98;3.53;;;;;;;;;;5020201;28;92593;-78
2024/01/03 05:08:25;;;;;;;16.52;4.15;;;;;;;;;;5022330;28;92420;-78
2024/01/03 05:10:52;;;;;;;15.15;3.17;;;;;;;;;;5014460;28;94816;-78
2024/01/03 05:13:18;;;;;;;15.23;3.53;;;;;;;;;;5001385;28;92289;-78
2024/01/03 05:15:45;;;;;;;13.68;2.58;;;;;;;;;;5019455;28;94893;-78
2024/01/03 05:18:11;;;;;;;17.83;3.45;;;;;;;;;;5020554;28;96359;-78
2024/01/03 05:20:38;;;;;;;14.65;3.60;;;;;;;;;;5022067;28;91986;-79
2024/01/03 05:23:05;;;;;;;17.80;4.68;;;;;;;;;;5027132;28;95034;-79
2024/01/03 05:25:31;;;;;;;17.60;3.30;;;;;;;;;;5037416;28;94163;-78
2024/01/03 05:27:58;;;;;;;21.23;3.83;;;;;;;;;;5029838;28;92482;-78
2024/01/03 05:30:24;;;;;;;14.13;3.72;;;;;;;;;;5025008;28;92283;-78
2024/01/03 05:32:51;;;;;;;22.63;4.18;;;;;;;;;;5049323;28;92044;-79
2024/01/03 05:35:17;;;;;;;16.20;3.30;;;;;;;;;;5036128;28;92130;-79
2024/01/03 05:37:44;;;;;;;16.23;3.50;;;;;;;;;;5035472;28;92302;-78
2024/01/03 05:40:10;;;;;;;16.48;3.50;;;;;;;;;;5033307;28;94493;-78
2024/01/03 05:42:37;;;;;;;19.23;3.63;;;;;;;;;;5022767;28;93814;-79
2024/01/03 05:45:04;;;;;;;18.67;3.70;;;;;;;;;;5033699;28;94259;-79
2024/01/03 05:47:30;;;;;;;20.20;2.92;;;;;;;;;;5033435;28;92084;-79
2024/01/03 05:49:57;;;;;;;15.30;3.45;;;;;;;;;;5034996;28;91870;-79
2024/01/03 05:52:23;;;;;;;18.55;2.83;;;;;;;;;;5021628;28;92546;-79
2024/01/03 05:54:50;;;;;;;17.85;3.50;;;;;;;;;;5018242;28;93320;-79
2024/01/03 05:57:16;;;;;;;17.95;3.13;;;;;;;;;;5022442;28;94383;-79
2024/01/03 05:59:43;;;;;;;11.00;2.83;;;;;;;;;;5014493;28;92079;-78
2024/01/03 06:02:09;;;;;;;21.85;3.40;;;;;;;;;;5033826;28;91986;-78
2024/01/03 06:04:37;;;;;;;15.75;3.33;;;;;;;;;;5031932;28;94489;-78
2024/01/03 06:07:04;;;;;;;19.05;3.08;;;;;;;;;;5024863;28;92445;-78
2024/01/03 06:09:30;;;;;;;13.38;2.95;;;;;;;;;;5014151;28;92499;-79
2024/01/03 06:11:57;;;;;;;14.32;3.10;;;;;;;;;;5023420;28;94192;-79
2024/01/03 06:14:23;;;;;;;18.88;3.53;;;;;;;;;;5029657;28;92971;-78
2024/01/03 06:16:50;;;;;;;10.60;3.03;;;;;;;;;;5031163;28;92619;-79
2024/01/03 06:19:16;;;;;;;10.40;3.17;;;;;;;;;;5023729;28;92289;-79
2024/01/03 06:21:43;;;;;;;14.43;4.28;;;;;;;;;;5018498;28;92289;-78
2024/01/03 06:24:10;;;;;;;12.77;3.38;;;;;;;;;;5035979;28;94097;-78
2024/01/03 06:26:36;;;;;;;14.85;2.92;;;;;;;;;;5035846;28;92168;-79
2024/01/03 06:29:03;;;;;;;6.97;1.83;;;;;;;;;;5025912;28;95098;-79
2024/01/03 06:31:29;;;;;;;11.05;2.58;;;;;;;;;;5029576;28;93939;-78
2024/01/03 06:33:56;;;;;;;10.57;2.55;;;;;;;;;;5048586;28;92046;-79
2024/01/03 06:36:23;;;;;;;13.15;2.55;;;;;;;;;;5033944;28;92040;-78
2024/01/03 06:38:50;;;;;;;13.70;2.05;;;;;;;;;;5021127;28;91685;-79
2024/01/03 06:41:18;;;;;;;12.55;2.65;;;;;;;;;;5015641;28;92028;-79
2024/01/03 06:43:44;;;;;;;11.23;2.78;;;;;;;;;;5012830;28;91944;-79
2024/01/03 06:46:11;;;;;;;10.95;2.50;;;;;;;;;;5050270;28;93511;-79
2024/01/03 06:48:37;;;;;;;8.07;1.92;;;;;;;;;;5033244;28;91798;-79
2024/01/03 06:51:04;;;;;;;11.70;2.10;;;;;;;;;;5014396;28;92262;-79
2024/01/03 06:53:31;;;;;;;10.02;2.10;;;;;;;;;;5009818;28;97544;-79
2024/01/03 06:55:58;;;;;;;11.40;2.35;;;;;;;;;;5016103;28;91905;-81
2024/01/03 06:58:27;;;;;;;9.85;2.15;;;;;;;;;;5004002;28;92763;-79
2024/01/03 07:00:53;;;;;;;9.88;2.25;;;;;;;;;;5018142;28;95064;-79
2024/01/03 07:03:20;;;;;;;9.30;2.28;;;;;;;;;;4998553;28;92483;-79
2024/01/03 07:05:46;;;;;;;7.53;1.58;;;;;;;;;;4995586;28;93453;-79
2024/01/03 07:08:13;;;;;;;10.18;2.00;;;;;;;;;;4999701;28;92848;-77
2024/01/03 07:10:40;;;;;;;7.10;1.98;;;;;;;;;;5013232;28;92835;-78
2024/01/03 07:13:06;;;;;;;7.28;1.50;;;;;;;;;;5002348;28;94822;-78
2024/01/03 07:15:33;;;;;;;11.45;1.60;;;;;;;;;;5000652;28;92153;-78
2024/01/03 07:18:01;;;;;;;6.20;1.67;;;;;;;;;;5006469;28;96465;-79
2024/01/03 07:20:28;;;;;;;8.43;2.10;;;;;;;;;;5008906;28;92468;-79
2024/01/03 07:22:54;;;;;;;5.18;1.55;;;;;;;;;;5008275;28;92818;-78
2024/01/03 07:25:21;;;;;;;5.88;1.50;;;;;;;;;;5010942;28;92232;-78
2024/01/03 07:27:47;;;;;;;10.25;1.38;;;;;;;;;;5008601;28;92465;-81
2024/01/03 07:30:14;;;;;;;6.30;1.70;;;;;;;;;;5005232;28;92377;-79
2024/01/03 07:32:40;;;;;;;8.73;2.35;;;;;;;;;;5006219;28;94227;-80
2024/01/03 07:35:07;;;;;;;2.95;0.90;;;;;;;;;;5020772;28;91703;-80
2024/01/03 07:37:34;;;;;;;5.43;1.33;;;;;;;;;;4998849;28;94568;-80
2024/01/03 07:40:00;;;;;;;7.40;1.58;;;;;;;;;;5003542;28;92337;-79
2024/01/03 07:42:27;;;;;;;5.00;1.15;;;;;;;;;;5001903;28;94424;-79
2024/01/03 07:44:53;;;;;;;2.92;1.20;;;;;;;;;;4996675;28;92855;-78
2024/01/03 07:47:19;;;;;;;6.93;1.02;;;;;;;;;;5000811;28;93189;-80
2024/01/03 07:49:47;;;;;;;3.00;1.17;;;;;;;;;;4995100;28;93608;-78
2024/01/03 07:52:14;;;;;;;9.15;1.60;;;;;;;;;;4996712;28;93112;-78
2024/01/03 07:54:40;;;;;;;5.78;1.02;;;;;;;;;;4996754;28;92550;-78
2024/01/03 07:57:07;;;;;;;10.77;1.33;;;;;;;;;;5001700;28;92456;-79
2024/01/03 07:59:34;;;;;;;2.92;0.75;;;;;;;;;;5005449;28;92055;-78
2024/01/03 08:02:00;;;;;;;5.43;1.33;;;;;;;;;;5009868;28;94064;-77
2024/01/03 08:04:27;;;;;;;5.13;0.70;;;;;;;;;;5015044;28;91932;-78
2024/01/03 08:06:54;;;;;;;4.72;1.73;;;;;;;;;;5010129;28;94683;-78
2024/01/03 08:09:21;;;;;;;4.70;1.10;;;;;;;;;;5016295;28;94182;-78
2024/01/03 08:11:47;;;;;;;2.33;1.15;;;;;;;;;;5008767;28;94207;-78
2024/01/03 08:14:14;;;;;;;6.18;0.98;;;;;;;;;;5006149;28;92030;-78
2024/01/03 08:16:41;;;;;;;2.80;1.17;;;;;;;;;;5018431;28;93080;-78
2024/01/03 08:19:07;;;;;;;2.30;0.80;;;;;;;;;;5007904;28;92425;-78
2024/01/03 08:21:34;;;;;;;5.32;0.85;;;;;;;;;;5002511;28;92335;-78
2024/01/03 08:24:00;;;;;;;5.53;1.33;;;;;;;;;;5018533;28;92132;-78
2024/01/03 08:26:27;;;;;;;5.43;1.73;;;;;;;;;;5015161;28;93348;-78
2024/01/03 08:28:53;;;;;;;6.13;1.65;;;;;;;;;;5005212;28;93769;-78
2024/01/03 08:31:20;;;;;;;3.08;1.00;;;;;;;;;;5012284;28;94426;-78
2024/01/03 08:33:46;;;;;;;1.77;0.90;;;;;;;;;;5008307;28;92511;-78
2024/01/03 08:36:14;;;;;;;2.08;0.85;;;;;;;;;;5012105;28;92774;-78
2024/01/03 08:38:41;;;;;;;7.57;2.33;;;;;;;;;;5007949;28;92485;-78
2024/01/03 08:41:14;;;;;;;5.85;1.45;;;;;;;;;;5019391;28;93098;-78
2024/01/03 08:43:41;;;;;;;2.60;0.98;;;;;;;;;;5023282;28;93111;-78
2024/01/03 08:46:08;;;;;;;6.82;1.33;;;;;;;;;;5000612;28;92432;-82
2024/01/03 08:48:35;;;;;;;5.57;1.25;;;;;;;;;;5001912;28;92134;-77
2024/01/03 08:51:02;;;;;;;5.50;1.20;;;;;;;;;;5012621;28;92979;-78
2024/01/03 08:53:28;;;;;;;7.10;1.20;;;;;;;;;;5010479;28;92925;-79
2024/01/03 08:55:55;;;;;;;5.30;1.60;;;;;;;;;;5016532;28;94768;-78
2024/01/03 08:58:21;;;;;;;9.98;1.77;;;;;;;;;;5016197;28;92979;-79
2024/01/03 09:00:48;;;;;;;3.47;1.17;;;;;;;;;;5004899;28;95761;-78
2024/01/03 09:03:15;;;;;;;8.02;2.05;;;;;;;;;;5009305;28;91989;-79
2024/01/03 09:05:42;;;;;;;6.13;1.23;;;;;;;;;;4997358;28;94265;-78
2024/01/03 09:08:09;;;;;;;8.15;2.22;;;;;;;;;;5011788;28;92351;-78
2024/01/03 09:10:36;;;;;;;4.95;1.50;;;;;;;;;;5007514;28;92566;-79
2024/01/03 09:13:02;;;;;;;4.07;1.13;;;;;;;;;;5004855;28;92082;-79
2024/01/03 09:15:29;;;;;;;8.80;1.92;;;;;;;;;;5024896;28;92373;-79
2024/01/03 09:17:55;;;;;;;9.43;1.40;;;;;;;;;;5006908;28;92277;-79
2024/01/03 09:20:22;;;;;;;6.40;1.90;;;;;;;;;;5010479;28;94858;-80
2024/01/03 09:22:50;;;;;;;5.85;1.15;;;;;;;;;;4995591;28;94088;-78
2024/01/03 09:25:17;;;;;;;7.70;2.00;;;;;;;;;;4998090;28;93290;-78
2024/01/03 09:27:43;;;;;;;8.45;2.22;;;;;;;;;;5002044;28;92265;-78
2024/01/03 09:30:10;;;;;;;5.90;1.65;;;;;;;;;;5012611;28;92229;-80
2024/01/03 09:32:37;;;;;;;7.82;1.75;;;;;;;;;;5027890;28;94662;-80
2024/01/03 09:35:04;;;;;;;7.53;2.88;;;;;;;;;;5011391;28;92323;-80
2024/01/03 09:37:31;;;;;;;9.40;1.65;;;;;;;;;;5029154;28;91865;-80
2024/01/03 09:39:57;;;;;;;4.20;1.48;;;;;;;;;;5017271;28;92551;-80
2024/01/03 09:42:24;;;;;;;4.95;1.27;;;;;;;;;;4995368;28;92410;-79
2024/01/03 09:44:51;;;;;;;6.60;1.23;;;;;;;;;;5012822;28;95466;-83
2024/01/03 09:47:20;;;;;;;7.30;1.70;;;;;;;;;;5014179;28;91979;-84
2024/01/03 09:49:47;;;;;;;13.35;2.33;;;;;;;;;;5019655;28;95517;-84
2024/01/03 09:52:13;;;;;;;9.75;1.92;;;;;;;;;;5014082;28;93118;-84
2024/01/03 09:54:40;;;;;;;8.73;2.03;;;;;;;;;;5016925;28;92460;-84
2024/01/03 09:57:07;;;;;;;7.45;1.50;;;;;;;;;;5018157;28;94136;-84
2024/01/03 09:59:36;;;;;;;5.18;1.75;;;;;;;;;;5015196;28;92472;-84
2024/01/03 10:02:02;;;;;;;9.32;1.58;;;;;;;;;;5014165;28;91397;-84
2024/01/03 10:04:29;;;;;;;8.18;1.52;;;;;;;;;;5009941;28;92763;-84
2024/01/03 10:06:57;;;;;;;6.05;1.50;;;;;;;;;;5009005;28;92511;-84
2024/01/03 10:09:24;;;;;;;6.25;1.88;;;;;;;;;;5012490;28;94871;-84
2024/01/03 10:11:52;;;;;;;5.53;1.40;;;;;;;;;;5007594;28;95048;-83
2024/01/03 10:14:21;;;;;;;12.95;2.05;;;;;;;;;;5017994;28;92626;-83
2024/01/03 10:16:48;;;;;;;18.70;2.17;;;;;;;;;;5018886;28;92278;-84
2024/01/03 10:19:16;;;;;;;12.05;2.35;;;;;;;;;;5011405;28;92360;-84
2024/01/03 10:21:46;;;;;;;6.22;1.52;;;;;;;;;;5005924;28;94915;-84
2024/01/03 10:24:13;;;;;;;8.23;1.40;;;;;;;;;;5008822;28;92280;-84
2024/01/03 10:26:39;;;;;;;4.40;1.77;;;;;;;;;;5009222;28;92018;-81
2024/01/03 10:29:10;;;;;;;6.85;1.35;;;;;;;;;;5002844;28;92031;-82
2024/01/03 10:31:36;;;;;;;10.90;1.90;;;;;;;;;;5011040;28;92930;-79
2024/01/03 10:34:04;;;;;;;3.83;1.27;;;;;;;;;;5016744;28;94895;-79
2024/01/03 10:36:32;;;;;;;8.57;2.00;;;;;;;;;;5022019;28;95098;-79
2024/01/03 10:38:58;;;;;;;6.20;2.05;;;;;;;;;;4998520;28;93502;-79
2024/01/03 10:41:25;;;;;;;8.90;1.73;;;;;;;;;;5017864;28;94467;-79
2024/01/03 10:43:51;;;;;;;6.22;1.77;;;;;;;;;;4997539;28;93141;-79
2024/01/03 10:46:18;;;;;;;5.57;1.73;;;;;;;;;;5022919;28;92414;-79
2024/01/03 10:48:44;;;;;;;5.15;1.40;;;;;;;;;;5005109;28;93533;-79
2024/01/03 10:51:13;;;;;;;6.03;1.50;;;;;;;;;;5018570;28;92508;-79
2024/01/03 10:53:42;;;;;;;5.05;1.63;;;;;;;;;;5005298;28;92916;-79
2024/01/03 10:56:09;;;;;;;7.20;1.55;;;;;;;;;;5004139;28;92412;-80
2024/01/03 10:58:39;;;;;;;5.72;1.55;;;;;;;;;;5004002;28;94763;-78
2024/01/03 11:01:14;;;;;;;7.47;2.50;;;;;;;;;;5001449;28;95331;-80
2024/01/03 11:03:59;;;;;;;10.13;2.13;;;;;;;;;;5012508;28;92969;-79
2024/01/03 11:06:31;;;;;;;7.32;1.63;;;;;;;;;;5009931;28;92450;-79
2024/01/03 11:08:58;;;;;;;13.77;2.03;;;;;;;;;;5005734;28;93133;-80
2024/01/03 11:11:32;;;;;;;22.10;3.08;;;;;;;;;;5006215;28;92262;-79
2024/01/03 11:14:00;;;;;;;8.63;1.98;;;;;;;;;;5005857;28;92443;-79
2024/01/03 11:16:37;;;;;;;8.20;2.13;;;;;;;;;;5008070;28;91988;-80
2024/01/03 11:19:04;;;;;;;10.95;2.08;;;;;;;;;;5021599;28;92411;-80
2024/01/03 11:21:37;;;;;;;10.77;2.35;;;;;;;;;;5007014;28;92395;-78
2024/01/03 11:24:24;;;;;;;16.55;2.63;;;;;;;;;;5000591;28;95119;-79
2024/01/03 11:26:57;;;;;;;22.83;4.03;;;;;;;;;;5008478;28;92402;-79
2024/01/03 11:29:42;;;;;;;15.05;2.78;;;;;;;;;;5027310;28;92304;-80
2024/01/03 11:32:09;;;;;;;12.43;2.17;;;;;;;;;;5019007;28;92522;-79
2024/01/03 11:34:39;;;;;;;16.92;2.88;;;;;;;;;;5007086;28;92442;-78
2024/01/03 11:37:06;;;;;;;11.95;2.63;;;;;;;;;;5020470;28;92330;-79
2024/01/03 11:39:36;;;;;;;9.93;2.70;;;;;;;;;;5023131;28;93475;-79
2024/01/03 11:42:03;;;;;;;15.98;3.08;;;;;;;;;;5012940;28;91942;-80
2024/01/03 11:44:30;;;;;;;14.52;3.90;;;;;;;;;;5018611;28;93135;-80
2024/01/03 11:47:02;;;;;;;9.20;2.50;;;;;;;;;;5024690;28;93067;-79
2024/01/03 11:49:28;;;;;;;16.80;3.03;;;;;;;;;;5016589;28;94784;-79
2024/01/03 11:51:56;;;;;;;12.40;3.15;;;;;;;;;;4999412;28;92649;-80
2024/01/03 11:54:22;;;;;;;18.52;2.90;;;;;;;;;;4999443;28;93645;-79
2024/01/03 11:56:48;;;;;;;12.77;3.10;;;;;;;;;;5027298;28;92359;-79
2024/01/03 11:59:19;;;;;;;17.40;2.85;;;;;;;;;;5016139;28;92391;-78
2024/01/03 12:01:58;;;;;;;8.27;2.17;;;;;;;;;;5011275;28;92765;-78
2024/01/03 12:04:25;;;;;;;13.20;2.67;;;;;;;;;;5014216;28;92742;-78
2024/01/03 12:06:58;;;;;;;14.07;2.83;;;;;;;;;;5018550;28;91784;-79
2024/01/03 12:09:29;;;;;;;14.15;2.85;;;;;;;;;;4996819;28;92207;-78
2024/01/03 12:11:55;;;;;;;13.85;2.38;;;;;;;;;;4997496;28;93229;-79
2024/01/03 12:14:22;;;;;;;7.57;2.30;;;;;;;;;;4995961;28;94773;-78
2024/01/03 12:16:49;;;;;;;8.43;2.10;;;;;;;;;;5001829;28;93738;-79
2024/01/03 12:19:26;;;;;;;10.93;2.55;;;;;;;;;;5003835;28;92529;-79
2024/01/03 12:22:02;;;;;;;8.20;2.03;;;;;;;;;;5000015;28;94627;-75
2024/01/03 12:24:38;;;;;;;18.48;2.70;;;;;;;;;;5004603;28;92166;-78
2024/01/03 12:27:05;;;;;;;16.30;3.05;;;;;;;;;;5008603;28;92471;-81
2024/01/03 12:29:33;;;;;;;17.02;2.50;;;;;;;;;;4995324;28;92451;-76
2024/01/03 12:32:09;;;;;;;9.13;2.47;;;;;;;;;;4993748;28;93273;-76
2024/01/03 12:34:35;;;;;;;16.17;2.65;;;;;;;;;;4995158;28;92933;-74
2024/01/03 12:37:02;;;;;;;16.38;3.47;;;;;;;;;;4995569;28;92722;-74
2024/01/03 12:39:35;;;;;;;9.70;2.40;;;;;;;;;;4994957;28;94800;-73
2024/01/03 12:42:07;;;;;;;17.60;3.35;;;;;;;;;;5004959;28;92262;-76
2024/01/03 12:44:33;;;;;;;;;;;;;;;;;;5006216;28;95178;-74
2024/01/03 12:47:00;;;;;;;8.05;2.40;;;;;;;;;;4985606;28;100396;-72
2024/01/03 12:49:26;;;;;;;17.83;3.78;;;;;;;;;;5002779;28;92419;-73
2024/01/03 12:51:55;;;;;;;18.90;4.03;;;;;;;;;;5000740;28;92349;-73
2024/01/03 12:54:22;;;;;;;9.38;2.92;;;;;;;;;;5014421;28;92203;-76
2024/01/03 12:56:48;;;;;;;21.92;3.30;;;;;;;;;;4995338;28;92272;-74
2024/01/03 12:59:15;;;;;;;16.65;2.50;;;;;;;;;;4995159;28;92370;-74
2024/01/03 13:01:42;;;;;;;13.57;3.03;;;;;;;;;;4998543;28;92245;-74
2024/01/03 13:04:08;;;;;;;15.70;4.32;;;;;;;;;;4991544;28;94793;-75
2024/01/03 13:06:35;;;;;;;15.80;2.95;;;;;;;;;;4994257;28;93012;-74
2024/01/03 13:09:04;;;;;;;18.60;3.25;;;;;;;;;;4994662;28;92493;-75
2024/01/03 13:11:30;;;;;;;12.38;2.80;;;;;;;;;;4997775;28;92910;-75
2024/01/03 13:13:57;;;;;;;19.25;3.33;;;;;;;;;;4994606;28;92975;-74
2024/01/03 13:16:24;;;;;;;10.88;3.03;;;;;;;;;;4994528;28;92288;-74
2024/01/03 13:18:50;;;;;;;13.52;2.67;;;;;;;;;;4994298;28;92517;-75
2024/01/03 13:21:17;;;;;;;14.85;2.65;;;;;;;;;;5002056;28;92826;-75
2024/01/03 13:23:44;;;;;;;17.65;3.72;;;;;;;;;;4999966;28;92290;-74
2024/01/03 13:26:11;;;;;;;13.90;2.58;;;;;;;;;;4994592;28;92341;-75
2024/01/03 13:28:40;;;;;;;15.73;3.17;;;;;;;;;;4992958;28;94791;-74
2024/01/03 13:31:13;;;;;;;11.32;2.50;;;;;;;;;;4996389;28;94070;-74
2024/01/03 13:33:40;;;;;;;12.05;2.45;;;;;;;;;;4997532;28;92445;-74
2024/01/03 13:36:07;;;;;;;9.90;3.05;;;;;;;;;;4993960;28;92513;-74
2024/01/03 13:38:34;;;;;;;14.10;2.63;;;;;;;;;;4994943;28;93947;-75
2024/01/03 13:41:01;;;;;;;11.23;2.97;;;;;;;;;;4993615;28;94422;-75
2024/01/03 13:43:28;;;;;;;15.35;3.10;;;;;;;;;;4994340;28;92373;-74
2024/01/03 13:45:54;;;;;;;8.77;2.60;;;;;;;;;;4994234;28;91757;-75
2024/01/03 13:48:21;;;;;;;11.30;2.13;;;;;;;;;;5013938;28;93070;-74
2024/01/03 13:50:48;;;;;;;8.82;2.70;;;;;;;;;;5002077;28;92892;-74
2024/01/03 13:53:15;;;;;;;18.00;3.92;;;;;;;;;;5008984;28;96327;-74
2024/01/03 13:55:42;;;;;;;10.38;2.47;;;;;;;;;;5016519;28;92356;-74
2024/01/03 13:58:08;;;;;;;11.07;2.88;;;;;;;;;;5011695;28;93246;-74
2024/01/03 14:00:34;;;;;;;10.65;2.90;;;;;;;;;;4993384;28;92462;-75
2024/01/03 14:03:01;;;;;;;15.85;2.55;;;;;;;;;;5009312;28;92403;-75
2024/01/03 14:05:28;;;;;;;9.65;2.28;;;;;;;;;;5013848;28;92228;-75
2024/01/03 14:07:54;;;;;;;11.68;2.47;;;;;;;;;;5005700;28;92463;-74
2024/01/03 14:10:21;;;;;;;7.80;2.40;;;;;;;;;;4995624;28;92896;-74
2024/01/03 14:12:48;;;;;;;6.28;1.92;;;;;;;;;;5002498;28;93320;-74
2024/01/03 14:15:14;;;;;;;8.82;2.45;;;;;;;;;;5010677;28;93032;-74
2024/01/03 14:17:41;;;;;;;8.50;2.17;;;;;;;;;;5000545;28;94783;-74
2024/01/03 14:20:12;;;;;;;14.20;3.03;;;;;;;;;;5009800;28;92336;-74
2024/01/03 14:22:39;;;;;;;6.38;1.67;;;;;;;;;;5000090;28;92554;-75
2024/01/03 14:25:06;;;;;;;11.50;2.55;;;;;;;;;;5011153;28;92087;-75
2024/01/03 14:27:33;;;;;;;8.02;2.50;;;;;;;;;;5012881;28;91998;-76
2024/01/03 14:30:00;;;;;;;11.07;2.25;;;;;;;;;;5001356;28;92300;-75
2024/01/03 14:32:27;;;;;;;8.20;2.30;;;;;;;;;;5009488;28;92410;-75
2024/01/03 14:34:54;;;;;;;5.25;1.63;;;;;;;;;;5012075;28;92078;-75
2024/01/03 14:37:21;;;;;;;6.95;1.98;;;;;;;;;;5001207;28;92482;-76